sensor_id;sensor_type;location;lat;lon;timestamp;P1;durP1;ratioP1;P2;durP2;ratioP2
21420;SDS011;10871;50.144;8.428;2023-02-14T00:01:56;45.65;;;24.50;;
21420;SDS011;10871;50.144;8.428;2023-02-14T00:04:23;48.10;;;26.05;;
21420;SDS011;10871;50.144;8.428;2023-02-14T00:06:49;51.55;;;26.77;;
21420;SDS011;10871;50.144;8.428;2023-02-14T00:09:16;52.58;;;26.42;;
21420;SDS011;10871;50.144;8.428;2023-02-14T00:11:43;52.88;;;27.38;;
21420;SDS011;10871;50.144;8.428;2023-02-14T00:14:10;48.00;;;26.33;;
21420;SDS011;10871;50.144;8.428;2023-02-14T00:16:55;50.67;;;25.38;;
21420;SDS011;10871;50.144;8.428;2023-02-14T00:19:22;50.53;;;26.95;;
21420;SDS011;10871;50.144;8.428;2023-02-14T00:21:48;51.40;;;26.85;;
21420;SDS011;10871;50.144;8.428;2023-02-14T00:24:16;48.50;;;24.95;;
21420;SDS011;10871;50.144;8.428;2023-02-14T00:26:42;49.25;;;25.17;;
21420;SDS011;10871;50.144;8.428;2023-02-14T00:29:13;47.85;;;24.85;;
21420;SDS011;10871;50.144;8.428;2023-02-14T00:31:41;48.92;;;24.52;;
21420;SDS011;10871;50.144;8.428;2023-02-14T00:34:08;47.00;;;24.20;;
21420;SDS011;10871;50.144;8.428;2023-02-14T00:36:34;47.30;;;25.17;;
21420;SDS011;10871;50.144;8.428;2023-02-14T00:39:01;52.60;;;26.15;;
21420;SDS011;10871;50.144;8.428;2023-02-14T00:41:28;52.88;;;25.52;;
21420;SDS011;10871;50.144;8.428;2023-02-14T00:43:54;46.75;;;24.20;;
21420;SDS011;10871;50.144;8.428;2023-02-14T00:46:22;55.50;;;27.42;;
21420;SDS011;10871;50.144;8.428;2023-02-14T00:48:49;53.78;;;26.02;;
21420;SDS011;10871;50.144;8.428;2023-02-14T00:51:15;57.97;;;27.35;;
21420;SDS011;10871;50.144;8.428;2023-02-14T00:53:44;55.33;;;27.02;;
21420;SDS011;10871;50.144;8.428;2023-02-14T00:56:11;53.92;;;26.90;;
21420;SDS011;10871;50.144;8.428;2023-02-14T00:58:38;53.85;;;25.83;;
21420;SDS011;10871;50.144;8.428;2023-02-14T01:01:04;56.17;;;27.15;;
21420;SDS011;10871;50.144;8.428;2023-02-14T01:03:31;56.50;;;26.88;;
21420;SDS011;10871;50.144;8.428;2023-02-14T01:05:57;55.20;;;27.23;;
21420;SDS011;10871;50.144;8.428;2023-02-14T01:08:24;58.53;;;28.35;;
21420;SDS011;10871;50.144;8.428;2023-02-14T01:10:51;54.00;;;27.45;;
21420;SDS011;10871;50.144;8.428;2023-02-14T01:13:17;51.25;;;25.63;;
21420;SDS011;10871;50.144;8.428;2023-02-14T01:15:45;54.53;;;27.77;;
21420;SDS011;10871;50.144;8.428;2023-02-14T01:18:12;56.20;;;26.70;;
21420;SDS011;10871;50.144;8.428;2023-02-14T01:20:38;60.58;;;26.88;;
21420;SDS011;10871;50.144;8.428;2023-02-14T01:23:06;54.97;;;27.23;;
21420;SDS011;10871;50.144;8.428;2023-02-14T01:25:32;54.53;;;25.88;;
21420;SDS011;10871;50.144;8.428;2023-02-14T01:28:01;53.13;;;26.50;;
21420;SDS011;10871;50.144;8.428;2023-02-14T01:30:44;57.92;;;27.85;;
21420;SDS011;10871;50.144;8.428;2023-02-14T01:39:06;55.67;;;27.63;;
21420;SDS011;10871;50.144;8.428;2023-02-14T01:41:33;57.78;;;28.83;;
21420;SDS011;10871;50.144;8.428;2023-02-14T01:46:31;66.75;;;29.80;;
21420;SDS011;10871;50.144;8.428;2023-02-14T01:49:00;65.10;;;30.17;;
21420;SDS011;10871;50.144;8.428;2023-02-14T01:51:27;64.85;;;29.83;;
21420;SDS011;10871;50.144;8.428;2023-02-14T01:53:54;66.38;;;30.52;;
21420;SDS011;10871;50.144;8.428;2023-02-14T01:56:26;66.32;;;30.20;;
21420;SDS011;10871;50.144;8.428;2023-02-14T01:58:55;68.35;;;31.08;;
21420;SDS011;10871;50.144;8.428;2023-02-14T02:01:23;69.10;;;30.50;;
21420;SDS011;10871;50.144;8.428;2023-02-14T02:03:51;62.83;;;30.40;;
21420;SDS011;10871;50.144;8.428;2023-02-14T02:11:33;68.55;;;30.65;;
21420;SDS011;10871;50.144;8.428;2023-02-14T02:13:59;63.78;;;30.45;;
21420;SDS011;10871;50.144;8.428;2023-02-14T02:24:19;71.90;;;32.92;;
21420;SDS011;10871;50.144;8.428;2023-02-14T02:26:57;67.38;;;31.58;;
21420;SDS011;10871;50.144;8.428;2023-02-14T02:40:27;78.63;;;33.80;;
21420;SDS011;10871;50.144;8.428;2023-02-14T02:45:30;68.90;;;32.20;;
21420;SDS011;10871;50.144;8.428;2023-02-14T02:48:08;70.93;;;32.30;;
21420;SDS011;10871;50.144;8.428;2023-02-14T02:53:25;68.82;;;32.83;;
21420;SDS011;10871;50.144;8.428;2023-02-14T02:58:43;70.30;;;32.47;;
21420;SDS011;10871;50.144;8.428;2023-02-14T03:01:11;68.55;;;32.58;;
21420;SDS011;10871;50.144;8.428;2023-02-14T03:03:39;70.22;;;33.20;;
21420;SDS011;10871;50.144;8.428;2023-02-14T03:06:28;78.22;;;34.25;;
21420;SDS011;10871;50.144;8.428;2023-02-14T03:08:54;72.65;;;33.40;;
21420;SDS011;10871;50.144;8.428;2023-02-14T03:11:21;68.30;;;32.55;;
21420;SDS011;10871;50.144;8.428;2023-02-14T03:13:53;69.40;;;31.92;;
21420;SDS011;10871;50.144;8.428;2023-02-14T03:16:33;64.25;;;32.03;;
21420;SDS011;10871;50.144;8.428;2023-02-14T03:21:41;68.30;;;31.23;;
21420;SDS011;10871;50.144;8.428;2023-02-14T03:24:17;72.82;;;32.13;;
21420;SDS011;10871;50.144;8.428;2023-02-14T03:26:46;69.00;;;32.25;;
21420;SDS011;10871;50.144;8.428;2023-02-14T03:29:15;74.15;;;33.33;;
21420;SDS011;10871;50.144;8.428;2023-02-14T03:34:24;64.72;;;31.17;;
21420;SDS011;10871;50.144;8.428;2023-02-14T03:39:32;70.28;;;31.58;;
21420;SDS011;10871;50.144;8.428;2023-02-14T03:42:13;63.35;;;30.80;;
21420;SDS011;10871;50.144;8.428;2023-02-14T03:44:41;72.93;;;32.92;;
21420;SDS011;10871;50.144;8.428;2023-02-14T03:47:10;62.92;;;30.25;;
21420;SDS011;10871;50.144;8.428;2023-02-14T03:49:45;69.97;;;31.55;;
21420;SDS011;10871;50.144;8.428;2023-02-14T03:52:12;68.38;;;32.05;;
21420;SDS011;10871;50.144;8.428;2023-02-14T03:54:39;68.20;;;32.50;;
21420;SDS011;10871;50.144;8.428;2023-02-14T03:57:25;71.82;;;33.03;;
21420;SDS011;10871;50.144;8.428;2023-02-14T03:59:53;75.13;;;34.45;;
21420;SDS011;10871;50.144;8.428;2023-02-14T04:02:22;75.63;;;33.83;;
21420;SDS011;10871;50.144;8.428;2023-02-14T04:04:50;77.40;;;36.10;;
21420;SDS011;10871;50.144;8.428;2023-02-14T04:07:18;77.22;;;35.88;;
21420;SDS011;10871;50.144;8.428;2023-02-14T04:09:45;82.85;;;35.25;;
21420;SDS011;10871;50.144;8.428;2023-02-14T04:12:12;88.53;;;35.97;;
21420;SDS011;10871;50.144;8.428;2023-02-14T04:14:38;85.38;;;37.50;;
21420;SDS011;10871;50.144;8.428;2023-02-14T04:17:04;91.07;;;37.40;;
21420;SDS011;10871;50.144;8.428;2023-02-14T04:19:50;91.78;;;36.83;;
21420;SDS011;10871;50.144;8.428;2023-02-14T04:22:16;83.35;;;37.47;;
21420;SDS011;10871;50.144;8.428;2023-02-14T04:24:42;81.95;;;37.33;;
21420;SDS011;10871;50.144;8.428;2023-02-14T04:27:09;85.10;;;37.85;;
21420;SDS011;10871;50.144;8.428;2023-02-14T04:29:40;85.35;;;37.13;;
21420;SDS011;10871;50.144;8.428;2023-02-14T04:32:07;91.65;;;36.97;;
21420;SDS011;10871;50.144;8.428;2023-02-14T04:34:34;92.30;;;38.55;;
21420;SDS011;10871;50.144;8.428;2023-02-14T04:37:00;90.20;;;38.38;;
21420;SDS011;10871;50.144;8.428;2023-02-14T04:39:27;88.25;;;37.72;;
21420;SDS011;10871;50.144;8.428;2023-02-14T04:41:54;95.13;;;40.08;;
21420;SDS011;10871;50.144;8.428;2023-02-14T04:44:20;90.43;;;39.05;;
21420;SDS011;10871;50.144;8.428;2023-02-14T04:46:46;93.80;;;40.80;;
21420;SDS011;10871;50.144;8.428;2023-02-14T04:49:13;100.85;;;40.03;;
21420;SDS011;10871;50.144;8.428;2023-02-14T04:51:39;91.30;;;41.03;;
21420;SDS011;10871;50.144;8.428;2023-02-14T04:54:06;92.75;;;40.25;;
21420;SDS011;10871;50.144;8.428;2023-02-14T04:56:32;95.10;;;42.28;;
21420;SDS011;10871;50.144;8.428;2023-02-14T04:58:58;98.13;;;42.72;;
21420;SDS011;10871;50.144;8.428;2023-02-14T05:01:25;104.50;;;42.13;;
21420;SDS011;10871;50.144;8.428;2023-02-14T05:03:51;97.78;;;42.33;;
21420;SDS011;10871;50.144;8.428;2023-02-14T05:06:17;91.65;;;41.53;;
21420;SDS011;10871;50.144;8.428;2023-02-14T05:08:44;94.68;;;41.88;;
21420;SDS011;10871;50.144;8.428;2023-02-14T05:11:10;104.35;;;42.92;;
21420;SDS011;10871;50.144;8.428;2023-02-14T05:13:36;93.93;;;40.55;;
21420;SDS011;10871;50.144;8.428;2023-02-14T05:16:02;100.00;;;42.03;;
21420;SDS011;10871;50.144;8.428;2023-02-14T05:18:29;99.43;;;41.85;;
21420;SDS011;10871;50.144;8.428;2023-02-14T05:20:55;105.32;;;42.70;;
21420;SDS011;10871;50.144;8.428;2023-02-14T05:23:22;109.93;;;43.08;;
21420;SDS011;10871;50.144;8.428;2023-02-14T05:25:49;105.93;;;44.05;;
21420;SDS011;10871;50.144;8.428;2023-02-14T05:28:16;113.38;;;44.17;;
21420;SDS011;10871;50.144;8.428;2023-02-14T05:30:42;99.60;;;42.50;;
21420;SDS011;10871;50.144;8.428;2023-02-14T05:33:09;100.80;;;42.45;;
21420;SDS011;10871;50.144;8.428;2023-02-14T05:35:35;102.32;;;42.00;;
21420;SDS011;10871;50.144;8.428;2023-02-14T05:38:02;105.80;;;42.90;;
21420;SDS011;10871;50.144;8.428;2023-02-14T05:40:28;107.70;;;43.85;;
21420;SDS011;10871;50.144;8.428;2023-02-14T05:42:55;90.88;;;40.97;;
21420;SDS011;10871;50.144;8.428;2023-02-14T05:45:21;95.57;;;40.13;;
21420;SDS011;10871;50.144;8.428;2023-02-14T05:47:48;90.13;;;40.13;;
21420;SDS011;10871;50.144;8.428;2023-02-14T05:50:14;86.13;;;38.65;;
21420;SDS011;10871;50.144;8.428;2023-02-14T05:52:41;84.10;;;39.60;;
21420;SDS011;10871;50.144;8.428;2023-02-14T05:55:08;85.45;;;38.90;;
21420;SDS011;10871;50.144;8.428;2023-02-14T05:57:35;97.65;;;39.42;;
21420;SDS011;10871;50.144;8.428;2023-02-14T06:00:03;91.95;;;37.40;;
21420;SDS011;10871;50.144;8.428;2023-02-14T06:02:37;81.47;;;37.17;;
21420;SDS011;10871;50.144;8.428;2023-02-14T06:05:03;87.72;;;38.72;;
21420;SDS011;10871;50.144;8.428;2023-02-14T06:07:30;86.18;;;37.50;;
21420;SDS011;10871;50.144;8.428;2023-02-14T06:09:56;82.40;;;36.00;;
21420;SDS011;10871;50.144;8.428;2023-02-14T06:12:22;85.05;;;37.72;;
21420;SDS011;10871;50.144;8.428;2023-02-14T06:14:48;86.15;;;37.72;;
21420;SDS011;10871;50.144;8.428;2023-02-14T06:17:15;85.22;;;39.83;;
21420;SDS011;10871;50.144;8.428;2023-02-14T06:19:41;82.80;;;37.53;;
21420;SDS011;10871;50.144;8.428;2023-02-14T06:22:08;77.07;;;35.10;;
21420;SDS011;10871;50.144;8.428;2023-02-14T06:24:34;85.55;;;35.33;;
21420;SDS011;10871;50.144;8.428;2023-02-14T06:27:02;81.78;;;35.85;;
21420;SDS011;10871;50.144;8.428;2023-02-14T06:29:28;75.90;;;33.55;;
21420;SDS011;10871;50.144;8.428;2023-02-14T06:31:54;76.43;;;34.15;;
21420;SDS011;10871;50.144;8.428;2023-02-14T06:34:21;88.13;;;34.42;;
21420;SDS011;10871;50.144;8.428;2023-02-14T06:36:48;92.60;;;32.95;;
21420;SDS011;10871;50.144;8.428;2023-02-14T06:39:14;112.88;;;34.60;;
21420;SDS011;10871;50.144;8.428;2023-02-14T06:41:40;200.80;;;39.92;;
21420;SDS011;10871;50.144;8.428;2023-02-14T06:44:07;265.38;;;43.33;;
21420;SDS011;10871;50.144;8.428;2023-02-14T06:46:35;190.32;;;38.63;;
21420;SDS011;10871;50.144;8.428;2023-02-14T06:49:01;149.32;;;34.30;;
21420;SDS011;10871;50.144;8.428;2023-02-14T06:51:28;305.27;;;40.63;;
21420;SDS011;10871;50.144;8.428;2023-02-14T06:53:54;230.38;;;38.08;;
21420;SDS011;10871;50.144;8.428;2023-02-14T06:56:20;375.15;;;41.15;;
21420;SDS011;10871;50.144;8.428;2023-02-14T06:58:47;217.20;;;37.13;;
21420;SDS011;10871;50.144;8.428;2023-02-14T07:01:13;302.33;;;38.58;;
21420;SDS011;10871;50.144;8.428;2023-02-14T07:03:40;294.75;;;41.30;;
21420;SDS011;10871;50.144;8.428;2023-02-14T07:06:07;369.60;;;36.92;;
21420;SDS011;10871;50.144;8.428;2023-02-14T07:08:33;324.35;;;39.17;;
21420;SDS011;10871;50.144;8.428;2023-02-14T07:10:59;243.82;;;37.88;;
21420;SDS011;10871;50.144;8.428;2023-02-14T07:13:26;428.30;;;40.92;;
21420;SDS011;10871;50.144;8.428;2023-02-14T07:15:53;310.20;;;37.38;;
21420;SDS011;10871;50.144;8.428;2023-02-14T07:18:19;355.60;;;38.20;;
21420;SDS011;10871;50.144;8.428;2023-02-14T07:20:46;450.70;;;43.58;;
21420;SDS011;10871;50.144;8.428;2023-02-14T07:23:12;373.02;;;40.17;;
21420;SDS011;10871;50.144;8.428;2023-02-14T07:25:38;473.10;;;40.38;;
21420;SDS011;10871;50.144;8.428;2023-02-14T07:28:05;540.70;;;45.67;;
21420;SDS011;10871;50.144;8.428;2023-02-14T07:30:32;195.70;;;35.33;;
21420;SDS011;10871;50.144;8.428;2023-02-14T07:32:58;347.02;;;40.00;;
21420;SDS011;10871;50.144;8.428;2023-02-14T07:35:25;480.42;;;41.03;;
21420;SDS011;10871;50.144;8.428;2023-02-14T07:37:51;491.20;;;43.45;;
21420;SDS011;10871;50.144;8.428;2023-02-14T07:40:18;341.38;;;39.33;;
21420;SDS011;10871;50.144;8.428;2023-02-14T07:42:51;328.40;;;39.58;;
21420;SDS011;10871;50.144;8.428;2023-02-14T07:45:17;356.55;;;36.47;;
21420;SDS011;10871;50.144;8.428;2023-02-14T07:47:48;310.38;;;36.75;;
21420;SDS011;10871;50.144;8.428;2023-02-14T07:50:14;423.83;;;37.22;;
21420;SDS011;10871;50.144;8.428;2023-02-14T07:52:41;435.30;;;39.85;;
21420;SDS011;10871;50.144;8.428;2023-02-14T07:55:07;384.73;;;36.38;;
21420;SDS011;10871;50.144;8.428;2023-02-14T07:57:34;393.13;;;37.92;;
21420;SDS011;10871;50.144;8.428;2023-02-14T08:00:00;472.10;;;41.25;;
21420;SDS011;10871;50.144;8.428;2023-02-14T08:02:37;529.42;;;42.05;;
21420;SDS011;10871;50.144;8.428;2023-02-14T08:05:03;467.17;;;38.05;;
21420;SDS011;10871;50.144;8.428;2023-02-14T08:07:30;574.88;;;42.50;;
21420;SDS011;10871;50.144;8.428;2023-02-14T08:09:56;550.22;;;42.30;;
21420;SDS011;10871;50.144;8.428;2023-02-14T08:12:22;558.78;;;41.55;;
21420;SDS011;10871;50.144;8.428;2023-02-14T08:15:07;615.08;;;45.05;;
21420;SDS011;10871;50.144;8.428;2023-02-14T08:17:52;616.92;;;43.38;;
21420;SDS011;10871;50.144;8.428;2023-02-14T08:20:19;581.90;;;44.35;;
21420;SDS011;10871;50.144;8.428;2023-02-14T08:22:45;453.65;;;38.25;;
21420;SDS011;10871;50.144;8.428;2023-02-14T08:25:11;582.20;;;40.70;;
21420;SDS011;10871;50.144;8.428;2023-02-14T08:27:37;485.05;;;42.70;;
21420;SDS011;10871;50.144;8.428;2023-02-14T08:30:04;500.27;;;37.45;;
21420;SDS011;10871;50.144;8.428;2023-02-14T08:32:30;281.90;;;32.42;;
21420;SDS011;10871;50.144;8.428;2023-02-14T08:34:57;364.05;;;37.83;;
21420;SDS011;10871;50.144;8.428;2023-02-14T08:37:23;205.75;;;33.45;;
21420;SDS011;10871;50.144;8.428;2023-02-14T08:39:50;282.30;;;32.03;;
21420;SDS011;10871;50.144;8.428;2023-02-14T08:42:16;388.60;;;34.55;;
21420;SDS011;10871;50.144;8.428;2023-02-14T08:44:42;360.13;;;34.38;;
21420;SDS011;10871;50.144;8.428;2023-02-14T08:47:09;227.48;;;31.88;;
21420;SDS011;10871;50.144;8.428;2023-02-14T08:49:35;407.88;;;35.22;;
21420;SDS011;10871;50.144;8.428;2023-02-14T08:52:01;503.33;;;40.03;;
21420;SDS011;10871;50.144;8.428;2023-02-14T08:54:28;474.15;;;38.22;;
21420;SDS011;10871;50.144;8.428;2023-02-14T08:56:54;576.92;;;44.38;;
21420;SDS011;10871;50.144;8.428;2023-02-14T08:59:20;347.10;;;39.20;;
21420;SDS011;10871;50.144;8.428;2023-02-14T09:01:47;440.50;;;38.40;;
21420;SDS011;10871;50.144;8.428;2023-02-14T09:04:13;439.33;;;37.40;;
21420;SDS011;10871;50.144;8.428;2023-02-14T09:06:39;503.38;;;38.10;;
21420;SDS011;10871;50.144;8.428;2023-02-14T09:09:06;507.42;;;38.97;;
21420;SDS011;10871;50.144;8.428;2023-02-14T09:11:32;413.70;;;39.17;;
21420;SDS011;10871;50.144;8.428;2023-02-14T09:14:00;300.90;;;35.15;;
21420;SDS011;10871;50.144;8.428;2023-02-14T09:16:26;475.58;;;42.20;;
21420;SDS011;10871;50.144;8.428;2023-02-14T09:18:52;342.05;;;37.28;;
21420;SDS011;10871;50.144;8.428;2023-02-14T09:21:21;371.20;;;40.15;;
21420;SDS011;10871;50.144;8.428;2023-02-14T09:23:48;317.00;;;38.30;;
21420;SDS011;10871;50.144;8.428;2023-02-14T09:26:14;363.35;;;38.55;;
21420;SDS011;10871;50.144;8.428;2023-02-14T09:28:41;270.75;;;37.25;;
21420;SDS011;10871;50.144;8.428;2023-02-14T09:33:34;335.33;;;39.35;;
21420;SDS011;10871;50.144;8.428;2023-02-14T09:36:00;615.15;;;44.38;;
21420;SDS011;10871;50.144;8.428;2023-02-14T09:38:45;360.35;;;38.20;;
21420;SDS011;10871;50.144;8.428;2023-02-14T09:43:54;342.50;;;38.53;;
21420;SDS011;10871;50.144;8.428;2023-02-14T09:46:24;583.42;;;45.22;;
21420;SDS011;10871;50.144;8.428;2023-02-14T09:48:51;358.88;;;44.92;;
21420;SDS011;10871;50.144;8.428;2023-02-14T09:51:22;299.13;;;40.38;;
21420;SDS011;10871;50.144;8.428;2023-02-14T09:53:51;667.50;;;46.10;;
21420;SDS011;10871;50.144;8.428;2023-02-14T09:58:51;644.38;;;45.63;;
21420;SDS011;10871;50.144;8.428;2023-02-14T10:01:22;272.20;;;38.10;;
21420;SDS011;10871;50.144;8.428;2023-02-14T10:11:17;463.60;;;42.05;;
21420;SDS011;10871;50.144;8.428;2023-02-14T10:18:51;489.08;;;43.38;;
21420;SDS011;10871;50.144;8.428;2023-02-14T10:21:38;182.38;;;34.85;;
21420;SDS011;10871;50.144;8.428;2023-02-14T10:24:26;274.55;;;35.92;;
21420;SDS011;10871;50.144;8.428;2023-02-14T10:26:54;204.55;;;37.47;;
21420;SDS011;10871;50.144;8.428;2023-02-14T10:29:22;151.38;;;34.45;;
21420;SDS011;10871;50.144;8.428;2023-02-14T10:34:24;129.88;;;34.85;;
21420;SDS011;10871;50.144;8.428;2023-02-14T10:39:44;184.45;;;35.00;;
21420;SDS011;10871;50.144;8.428;2023-02-14T10:44:56;103.88;;;33.33;;
21420;SDS011;10871;50.144;8.428;2023-02-14T10:49:54;259.75;;;36.13;;
21420;SDS011;10871;50.144;8.428;2023-02-14T10:52:24;122.47;;;34.70;;
21420;SDS011;10871;50.144;8.428;2023-02-14T10:54:52;137.02;;;35.40;;
21420;SDS011;10871;50.144;8.428;2023-02-14T10:57:21;173.13;;;34.15;;
21420;SDS011;10871;50.144;8.428;2023-02-14T10:59:55;123.53;;;34.15;;
21420;SDS011;10871;50.144;8.428;2023-02-14T11:02:23;114.22;;;35.38;;
21420;SDS011;10871;50.144;8.428;2023-02-14T11:04:50;249.50;;;37.67;;
21420;SDS011;10871;50.144;8.428;2023-02-14T11:07:18;535.33;;;45.50;;
21420;SDS011;10871;50.144;8.428;2023-02-14T11:09:45;293.50;;;35.17;;
21420;SDS011;10871;50.144;8.428;2023-02-14T11:12:11;99.70;;;32.97;;
21420;SDS011;10871;50.144;8.428;2023-02-14T11:14:38;144.25;;;34.83;;
21420;SDS011;10871;50.144;8.428;2023-02-14T11:17:21;116.13;;;32.88;;
21420;SDS011;10871;50.144;8.428;2023-02-14T11:20:00;110.90;;;33.05;;
21420;SDS011;10871;50.144;8.428;2023-02-14T11:22:28;86.90;;;31.75;;
21420;SDS011;10871;50.144;8.428;2023-02-14T11:25:04;91.22;;;30.95;;
21420;SDS011;10871;50.144;8.428;2023-02-14T11:27:31;309.10;;;39.05;;
21420;SDS011;10871;50.144;8.428;2023-02-14T11:29:58;138.00;;;35.17;;
21420;SDS011;10871;50.144;8.428;2023-02-14T11:32:28;187.02;;;35.47;;
21420;SDS011;10871;50.144;8.428;2023-02-14T11:34:58;448.92;;;40.97;;
21420;SDS011;10871;50.144;8.428;2023-02-14T11:37:27;86.97;;;31.65;;
21420;SDS011;10871;50.144;8.428;2023-02-14T11:39:54;106.30;;;33.25;;
21420;SDS011;10871;50.144;8.428;2023-02-14T11:45:37;80.50;;;31.05;;
21420;SDS011;10871;50.144;8.428;2023-02-14T11:48:08;260.10;;;35.63;;
21420;SDS011;10871;50.144;8.428;2023-02-14T11:50:35;90.40;;;32.92;;
21420;SDS011;10871;50.144;8.428;2023-02-14T11:53:02;194.77;;;36.17;;
21420;SDS011;10871;50.144;8.428;2023-02-14T11:55:29;243.20;;;34.20;;
21420;SDS011;10871;50.144;8.428;2023-02-14T11:57:58;171.75;;;34.30;;
21420;SDS011;10871;50.144;8.428;2023-02-14T12:00:26;200.73;;;38.28;;
21420;SDS011;10871;50.144;8.428;2023-02-14T12:02:52;83.97;;;34.05;;
21420;SDS011;10871;50.144;8.428;2023-02-14T12:07:54;92.25;;;31.42;;
21420;SDS011;10871;50.144;8.428;2023-02-14T12:10:23;76.00;;;31.33;;
21420;SDS011;10871;50.144;8.428;2023-02-14T12:13:02;82.82;;;32.65;;
21420;SDS011;10871;50.144;8.428;2023-02-14T12:18:20;136.80;;;35.08;;
21420;SDS011;10871;50.144;8.428;2023-02-14T12:23:39;89.15;;;34.80;;
21420;SDS011;10871;50.144;8.428;2023-02-14T12:26:20;79.85;;;32.70;;
21420;SDS011;10871;50.144;8.428;2023-02-14T12:28:50;130.07;;;33.22;;
21420;SDS011;10871;50.144;8.428;2023-02-14T12:31:19;79.72;;;33.50;;
21420;SDS011;10871;50.144;8.428;2023-02-14T12:33:45;168.65;;;35.42;;
21420;SDS011;10871;50.144;8.428;2023-02-14T12:36:38;87.05;;;33.92;;
21420;SDS011;10871;50.144;8.428;2023-02-14T12:41:47;77.03;;;32.72;;
21420;SDS011;10871;50.144;8.428;2023-02-14T12:52:02;75.88;;;33.00;;
21420;SDS011;10871;50.144;8.428;2023-02-14T13:07:51;64.68;;;32.00;;
21420;SDS011;10871;50.144;8.428;2023-02-14T13:16:14;70.55;;;33.25;;
21420;SDS011;10871;50.144;8.428;2023-02-14T13:18:54;71.97;;;32.50;;
21420;SDS011;10871;50.144;8.428;2023-02-14T13:21:24;72.93;;;33.08;;
21420;SDS011;10871;50.144;8.428;2023-02-14T13:23:53;67.68;;;32.63;;
21420;SDS011;10871;50.144;8.428;2023-02-14T13:26:24;69.72;;;33.17;;
21420;SDS011;10871;50.144;8.428;2023-02-14T13:28:57;69.47;;;32.70;;
21420;SDS011;10871;50.144;8.428;2023-02-14T13:31:27;68.07;;;34.08;;
21420;SDS011;10871;50.144;8.428;2023-02-14T13:33:56;72.72;;;33.63;;
21420;SDS011;10871;50.144;8.428;2023-02-14T13:36:23;62.38;;;31.73;;
21420;SDS011;10871;50.144;8.428;2023-02-14T13:38:51;71.10;;;32.05;;
21420;SDS011;10871;50.144;8.428;2023-02-14T13:41:20;75.40;;;34.97;;
21420;SDS011;10871;50.144;8.428;2023-02-14T13:43:51;68.00;;;33.78;;
21420;SDS011;10871;50.144;8.428;2023-02-14T13:49:00;64.93;;;33.83;;
21420;SDS011;10871;50.144;8.428;2023-02-14T13:51:44;67.90;;;33.83;;
21420;SDS011;10871;50.144;8.428;2023-02-14T13:56:53;70.32;;;34.55;;
21420;SDS011;10871;50.144;8.428;2023-02-14T13:59:27;66.28;;;34.05;;
21420;SDS011;10871;50.144;8.428;2023-02-14T14:01:54;62.83;;;33.53;;
21420;SDS011;10871;50.144;8.428;2023-02-14T14:17:33;68.18;;;34.55;;
21420;SDS011;10871;50.144;8.428;2023-02-14T14:20:01;65.10;;;35.42;;
21420;SDS011;10871;50.144;8.428;2023-02-14T14:22:29;67.53;;;35.53;;
21420;SDS011;10871;50.144;8.428;2023-02-14T14:25:00;71.53;;;35.60;;
21420;SDS011;10871;50.144;8.428;2023-02-14T14:27:45;68.80;;;37.33;;
21420;SDS011;10871;50.144;8.428;2023-02-14T14:32:38;72.80;;;36.72;;
21420;SDS011;10871;50.144;8.428;2023-02-14T14:37:33;72.07;;;37.45;;
21420;SDS011;10871;50.144;8.428;2023-02-14T14:40:00;73.03;;;37.90;;
21420;SDS011;10871;50.144;8.428;2023-02-14T14:42:34;76.32;;;38.58;;
21420;SDS011;10871;50.144;8.428;2023-02-14T14:45:02;77.05;;;38.95;;
21420;SDS011;10871;50.144;8.428;2023-02-14T14:48:07;75.28;;;38.05;;
21420;SDS011;10871;50.144;8.428;2023-02-14T14:50:24;78.03;;;37.55;;
21420;SDS011;10871;50.144;8.428;2023-02-14T14:52:52;72.70;;;37.53;;
21420;SDS011;10871;50.144;8.428;2023-02-14T14:55:20;77.97;;;38.67;;
21420;SDS011;10871;50.144;8.428;2023-02-14T14:57:51;73.82;;;36.53;;
21420;SDS011;10871;50.144;8.428;2023-02-14T15:00:22;76.90;;;39.13;;
21420;SDS011;10871;50.144;8.428;2023-02-14T15:05:23;73.93;;;36.97;;
21420;SDS011;10871;50.144;8.428;2023-02-14T15:07:51;75.53;;;37.42;;
21420;SDS011;10871;50.144;8.428;2023-02-14T15:10:27;76.70;;;39.55;;
21420;SDS011;10871;50.144;8.428;2023-02-14T15:12:55;77.63;;;39.40;;
21420;SDS011;10871;50.144;8.428;2023-02-14T15:15:41;77.63;;;38.65;;
21420;SDS011;10871;50.144;8.428;2023-02-14T15:18:10;74.28;;;37.53;;
21420;SDS011;10871;50.144;8.428;2023-02-14T15:20:37;75.10;;;38.08;;
21420;SDS011;10871;50.144;8.428;2023-02-14T15:23:05;74.43;;;37.92;;
21420;SDS011;10871;50.144;8.428;2023-02-14T15:25:34;77.38;;;38.88;;
21420;SDS011;10871;50.144;8.428;2023-02-14T15:28:01;70.65;;;37.20;;
21420;SDS011;10871;50.144;8.428;2023-02-14T15:30:29;70.90;;;38.00;;
21420;SDS011;10871;50.144;8.428;2023-02-14T15:32:59;81.47;;;38.80;;
21420;SDS011;10871;50.144;8.428;2023-02-14T15:35:28;76.07;;;38.70;;
21420;SDS011;10871;50.144;8.428;2023-02-14T15:37:54;74.53;;;39.10;;
21420;SDS011;10871;50.144;8.428;2023-02-14T15:40:22;79.32;;;39.10;;
21420;SDS011;10871;50.144;8.428;2023-02-14T15:42:49;80.03;;;39.85;;
21420;SDS011;10871;50.144;8.428;2023-02-14T15:47:52;73.93;;;37.63;;
21420;SDS011;10871;50.144;8.428;2023-02-14T15:50:22;78.93;;;39.10;;
21420;SDS011;10871;50.144;8.428;2023-02-14T15:52:51;74.78;;;38.40;;
21420;SDS011;10871;50.144;8.428;2023-02-14T15:55:19;75.72;;;37.83;;
21420;SDS011;10871;50.144;8.428;2023-02-14T15:57:50;78.15;;;38.50;;
21420;SDS011;10871;50.144;8.428;2023-02-14T16:00:20;59.25;;;30.75;;
21420;SDS011;10871;50.144;8.428;2023-02-14T16:02:55;76.75;;;40.38;;
21420;SDS011;10871;50.144;8.428;2023-02-14T16:05:25;81.47;;;39.33;;
21420;SDS011;10871;50.144;8.428;2023-02-14T16:07:56;79.05;;;39.70;;
21420;SDS011;10871;50.144;8.428;2023-02-14T16:10:27;80.57;;;40.00;;
21420;SDS011;10871;50.144;8.428;2023-02-14T16:13:36;74.63;;;39.63;;
21420;SDS011;10871;50.144;8.428;2023-02-14T16:18:32;84.30;;;38.22;;
21420;SDS011;10871;50.144;8.428;2023-02-14T16:23:44;83.28;;;39.13;;
21420;SDS011;10871;50.144;8.428;2023-02-14T16:26:11;79.22;;;37.22;;
21420;SDS011;10871;50.144;8.428;2023-02-14T16:28:38;83.78;;;39.25;;
21420;SDS011;10871;50.144;8.428;2023-02-14T16:31:11;82.43;;;38.80;;
21420;SDS011;10871;50.144;8.428;2023-02-14T16:33:40;80.77;;;37.93;;
21420;SDS011;10871;50.144;8.428;2023-02-14T16:36:12;80.18;;;36.00;;
21420;SDS011;10871;50.144;8.428;2023-02-14T16:38:41;79.07;;;37.97;;
21420;SDS011;10871;50.144;8.428;2023-02-14T16:41:19;82.53;;;37.67;;
21420;SDS011;10871;50.144;8.428;2023-02-14T16:43:45;82.43;;;38.95;;
21420;SDS011;10871;50.144;8.428;2023-02-14T16:46:13;85.97;;;39.50;;
21420;SDS011;10871;50.144;8.428;2023-02-14T16:48:42;86.80;;;39.08;;
21420;SDS011;10871;50.144;8.428;2023-02-14T16:51:13;90.32;;;40.33;;
21420;SDS011;10871;50.144;8.428;2023-02-14T16:53:41;96.15;;;42.00;;
21420;SDS011;10871;50.144;8.428;2023-02-14T16:56:12;87.07;;;39.22;;
21420;SDS011;10871;50.144;8.428;2023-02-14T16:58:40;85.85;;;38.40;;
21420;SDS011;10871;50.144;8.428;2023-02-14T17:01:07;88.15;;;38.03;;